Time;durP1;ratioP1;P1;durP2;ratioP2;P2;SDS_P1;SDS_P2;PMS_P1;PMS_P2;Temp;Humidity;BMP_temperature;BMP_pressure;BME280_temperature;BME280_humidity;BME280_pressure;Samples;Min_cycle;Max_cycle;Signal;HPM_P1;HPM_P2
2023/01/25 00:01:26;;;;;;;6.97;4.95;;;17.50;1.00;;;;;;5014467;28;20042;-40
2023/01/25 00:03:53;;;;;;;4.65;4.03;;;17.40;1.00;;;;;;5014000;28;20054;-40
2023/01/25 00:06:20;;;;;;;5.53;4.45;;;17.40;1.00;;;;;;5014422;28;20038;-40
2023/01/25 00:08:50;;;;;;;6.75;4.80;;;17.40;1.00;;;;;;5014451;28;20089;-40
2023/01/25 00:11:18;;;;;;;6.75;4.60;;;17.30;1.00;;;;;;5014389;28;20038;-40
2023/01/25 00:13:45;;;;;;;6.43;4.78;;;17.30;1.00;;;;;;5014051;28;20058;-40
2023/01/25 00:16:12;;;;;;;6.20;4.90;;;17.30;1.00;;;;;;5014237;28;20076;-40
2023/01/25 00:18:39;;;;;;;7.43;4.85;;;17.30;1.00;;;;;;5014499;28;20046;-39
2023/01/25 00:21:21;;;;;;;7.53;4.82;;;17.20;1.00;;;;;;5014019;28;20490;-39
2023/01/25 00:23:48;;;;;;;5.85;4.18;;;17.20;1.00;;;;;;5013847;28;20053;-39
2023/01/25 00:26:16;;;;;;;6.93;5.05;;;17.20;1.00;;;;;;5013999;28;20064;-39
2023/01/25 00:28:47;;;;;;;5.65;4.40;;;17.10;1.00;;;;;;5014085;28;20042;-38
2023/01/25 00:31:38;;;;;;;6.68;5.28;;;17.10;1.00;;;;;;5012826;28;20042;-38
2023/01/25 00:34:17;;;;;;;6.63;5.07;;;17.10;1.00;;;;;;5012420;28;20041;-39
2023/01/25 00:36:44;;;;;;;5.93;4.53;;;17.10;1.00;;;;;;5013889;28;20473;-38
2023/01/25 00:39:12;;;;;;;7.07;4.78;;;17.00;1.00;;;;;;5013813;28;20097;-39
2023/01/25 00:41:39;;;;;;;6.28;5.10;;;17.00;1.00;;;;;;5013850;28;20046;-39
2023/01/25 00:44:06;;;;;;;6.82;4.78;;;17.00;1.00;;;;;;5011984;28;20046;-39
2023/01/25 00:46:33;;;;;;;5.72;4.75;;;16.90;1.00;;;;;;5012326;28;20544;-39
2023/01/25 00:49:00;;;;;;;5.72;5.05;;;16.90;1.00;;;;;;5012385;28;20092;-39
2023/01/25 00:51:27;;;;;;;6.68;5.22;;;16.90;1.00;;;;;;5013517;28;20120;-39
2023/01/25 00:53:53;;;;;;;7.65;5.43;;;16.80;1.00;;;;;;5012153;28;20088;-39
2023/01/25 00:56:20;;;;;;;7.20;5.53;;;16.80;1.00;;;;;;5012151;28;20042;-39
2023/01/25 00:58:47;;;;;;;6.15;5.07;;;16.80;1.00;;;;;;4996190;28;20038;-39
2023/01/25 01:01:16;;;;;;;6.50;4.88;;;16.80;1.00;;;;;;5012221;28;20042;-40
2023/01/25 01:03:43;;;;;;;7.07;4.85;;;16.80;1.00;;;;;;5013023;28;20061;-39
2023/01/25 01:06:12;;;;;;;6.15;5.28;;;16.80;1.00;;;;;;5012105;28;20413;-39
2023/01/25 01:08:40;;;;;;;6.65;5.07;;;16.70;1.00;;;;;;5013310;28;20038;-39
2023/01/25 01:11:10;;;;;;;7.78;5.22;;;16.70;1.00;;;;;;5011857;28;20045;-39
2023/01/25 01:13:38;;;;;;;7.82;5.65;;;16.70;1.00;;;;;;5011646;28;20050;-39
2023/01/25 01:16:10;;;;;;;6.75;5.20;;;16.60;1.00;;;;;;5013153;28;20054;-39
2023/01/25 01:18:43;;;;;;;7.28;5.15;;;16.60;1.00;;;;;;5011189;28;20050;-39
2023/01/25 01:21:11;;;;;;;7.28;4.72;;;16.60;1.00;;;;;;5012786;28;20390;-40
2023/01/25 01:23:39;;;;;;;6.47;4.90;;;16.60;1.00;;;;;;5012162;28;20129;-38
2023/01/25 01:26:07;;;;;;;7.57;5.57;;;16.60;1.00;;;;;;5003672;28;20084;-38
2023/01/25 01:28:38;;;;;;;6.95;5.57;;;16.50;1.00;;;;;;5008346;28;20417;-38
2023/01/25 01:31:16;;;;;;;6.80;5.20;;;16.50;1.00;;;;;;5012966;28;20038;-39
2023/01/25 01:33:52;;;;;;;8.63;6.30;;;16.50;1.00;;;;;;5012556;28;20037;-39
2023/01/25 01:36:22;;;;;;;8.10;5.72;;;16.50;1.00;;;;;;5012700;28;20061;-38
2023/01/25 01:38:49;;;;;;;5.88;4.68;;;16.50;1.00;;;;;;5012771;28;20049;-39
2023/01/25 01:41:16;;;;;;;5.60;4.63;;;16.40;1.00;;;;;;5012870;28;20050;-39
2023/01/25 01:43:44;;;;;;;6.47;4.38;;;16.40;1.00;;;;;;5011085;28;20046;-38
2023/01/25 01:46:46;;;;;;;7.80;5.32;;;16.40;1.00;;;;;;5012466;28;20084;-38
2023/01/25 01:49:32;;;;;;;5.97;4.93;;;16.40;1.00;;;;;;5009884;28;20042;-38
2023/01/25 01:52:16;;;;;;;6.80;4.93;;;16.30;1.00;;;;;;5012470;28;20068;-38
2023/01/25 01:55:06;;;;;;;6.60;5.03;;;16.30;1.00;;;;;;5010993;28;20421;-39
2023/01/25 01:57:40;;;;;;;7.18;5.20;;;16.30;1.00;;;;;;5011402;28;20050;-39
2023/01/25 02:00:18;;;;;;;6.30;4.55;;;16.30;1.00;;;;;;5011090;28;20057;-39
2023/01/25 02:02:46;;;;;;;6.18;4.88;;;16.20;1.00;;;;;;5010491;28;20395;-39
2023/01/25 02:05:52;;;;;;;7.03;5.68;;;16.20;1.00;;;;;;5010861;28;20049;-39
2023/01/25 02:08:19;;;;;;;7.13;5.03;;;16.20;1.00;;;;;;5012418;28;20042;-39
2023/01/25 02:10:48;;;;;;;6.70;5.05;;;16.10;1.00;;;;;;5010858;28;20058;-39
2023/01/25 02:13:17;;;;;;;6.97;5.57;;;16.10;1.00;;;;;;5012011;28;20038;-39
2023/01/25 02:15:48;;;;;;;7.30;5.43;;;16.10;1.00;;;;;;5010741;28;20045;-39
2023/01/25 02:18:16;;;;;;;6.07;4.82;;;16.10;1.00;;;;;;5010871;28;20104;-38
2023/01/25 02:20:45;;;;;;;7.55;5.38;;;16.10;1.00;;;;;;5012141;28;20435;-39
2023/01/25 02:23:25;;;;;;;6.70;5.05;;;16.00;1.00;;;;;;5010788;28;20050;-39
2023/01/25 02:25:54;;;;;;;6.07;4.95;;;16.00;1.00;;;;;;5011866;28;20213;-39
2023/01/25 02:29:03;;;;;;;6.35;5.13;;;16.00;1.00;;;;;;5012159;28;20033;-38
2023/01/25 02:31:30;;;;;;;6.03;4.72;;;16.00;1.00;;;;;;5006473;28;20506;-38
2023/01/25 02:33:59;;;;;;;6.93;5.38;;;15.90;1.00;;;;;;5010550;28;20049;-38
2023/01/25 02:36:31;;;;;;;8.18;5.22;;;15.90;1.00;;;;;;5011830;28;20045;-39
2023/01/25 02:39:07;;;;;;;6.80;5.15;;;15.90;1.00;;;;;;5010741;28;20077;-39
2023/01/25 02:41:40;;;;;;;6.00;4.70;;;15.90;1.00;;;;;;5010728;28;20137;-39
2023/01/25 02:44:25;;;;;;;7.47;5.38;;;15.90;1.00;;;;;;5010340;28;20060;-38
2023/01/25 02:46:52;;;;;;;8.13;5.38;;;15.80;1.00;;;;;;5011700;28;20064;-38
2023/01/25 02:49:19;;;;;;;7.80;4.97;;;15.80;1.00;;;;;;5010577;28;20379;-38
2023/01/25 02:51:50;;;;;;;7.05;5.40;;;15.80;1.00;;;;;;5011788;28;20034;-39
2023/01/25 02:54:19;;;;;;;6.78;5.07;;;15.80;1.00;;;;;;5010313;28;20159;-39
2023/01/25 02:56:46;;;;;;;7.28;5.00;;;15.80;1.00;;;;;;5010557;28;20536;-38
2023/01/25 02:59:13;;;;;;;7.68;5.50;;;15.80;1.00;;;;;;5010565;28;20046;-39
2023/01/25 03:01:45;;;;;;;8.80;6.13;;;15.70;1.00;;;;;;5010578;28;20049;-39
2023/01/25 03:04:12;;;;;;;7.88;5.32;;;15.70;1.00;;;;;;5010315;28;20049;-38
2023/01/25 03:06:40;;;;;;;7.32;5.22;;;15.70;1.00;;;;;;5024993;22;20194;-38
2023/01/25 03:09:09;;;;;;;5.95;4.75;;;15.70;1.00;;;;;;5031287;28;20036;-40
2023/01/25 03:11:39;;;;;;;7.90;5.43;;;15.60;1.00;;;;;;5021860;28;20052;-40
2023/01/25 03:14:06;;;;;;;6.43;4.50;;;15.60;1.00;;;;;;5029526;28;20115;-39
2023/01/25 03:16:33;;;;;;;7.88;5.85;;;15.60;1.00;;;;;;5025004;28;20060;-38
2023/01/25 03:19:01;;;;;;;7.05;4.90;;;15.60;1.00;;;;;;5033954;28;20415;-40
2023/01/25 03:21:28;;;;;;;7.88;5.65;;;15.60;1.00;;;;;;5033760;28;20049;-41
2023/01/25 03:23:58;;;;;;;8.88;5.30;;;15.60;1.00;;;;;;5034669;28;20399;-38
2023/01/25 03:26:29;;;;;;;6.55;4.63;;;15.50;1.00;;;;;;5033537;28;20047;-40
2023/01/25 03:29:08;;;;;;;8.20;5.30;;;15.50;1.00;;;;;;5033932;28;20048;-40
2023/01/25 03:31:38;;;;;;;8.65;5.45;;;15.50;1.00;;;;;;5033677;28;20037;-41
2023/01/25 03:34:05;;;;;;;8.27;6.13;;;15.50;1.00;;;;;;5033456;28;20041;-40
2023/01/25 03:36:36;;;;;;;7.75;5.35;;;15.50;1.00;;;;;;5033438;28;20398;-40
2023/01/25 03:39:03;;;;;;;7.50;5.03;;;15.50;1.00;;;;;;5033482;28;20053;-40
2023/01/25 03:41:36;;;;;;;7.82;5.70;;;15.40;1.00;;;;;;5033446;28;20512;-38
2023/01/25 03:44:05;;;;;;;7.18;5.20;;;15.40;1.00;;;;;;5033376;28;20053;-41
2023/01/25 03:46:32;;;;;;;7.57;5.38;;;15.40;1.00;;;;;;5033178;28;20061;-41
2023/01/25 03:48:58;;;;;;;8.05;5.63;;;15.40;1.00;;;;;;5033194;28;20068;-41
2023/01/25 03:51:25;;;;;;;7.78;4.85;;;15.40;1.00;;;;;;5033211;28;20096;-40
2023/01/25 03:53:52;;;;;;;7.82;5.65;;;15.40;1.00;;;;;;5032863;28;20460;-41
2023/01/25 03:56:20;;;;;;;6.75;4.82;;;15.30;1.00;;;;;;5033134;28;20564;-41
2023/01/25 03:58:57;;;;;;;7.22;5.03;;;15.30;1.00;;;;;;5033140;28;20053;-41
2023/01/25 04:01:24;;;;;;;8.18;5.28;;;15.30;1.00;;;;;;5034241;28;20064;-41
2023/01/25 04:03:51;;;;;;;7.57;5.25;;;15.30;1.00;;;;;;5033080;28;20055;-41
2023/01/25 04:06:18;;;;;;;7.57;5.32;;;15.30;1.00;;;;;;5032587;28;20170;-41
2023/01/25 04:08:45;;;;;;;6.95;5.53;;;15.20;1.00;;;;;;5032931;28;20049;-40
2023/01/25 04:11:12;;;;;;;8.93;4.53;;;15.20;1.00;;;;;;5032895;28;20417;-40
2023/01/25 04:13:42;;;;;;;8.45;6.10;;;15.20;1.00;;;;;;5032828;28;20037;-41
2023/01/25 04:16:12;;;;;;;7.85;5.43;;;15.20;1.00;;;;;;5032652;28;20072;-41
2023/01/25 04:19:01;;;;;;;7.47;5.82;;;15.20;1.00;;;;;;5033901;28;20050;-41
2023/01/25 04:21:30;;;;;;;6.95;5.18;;;15.20;1.00;;;;;;5032745;28;20055;-40
2023/01/25 04:23:56;;;;;;;7.78;5.68;;;15.20;1.00;;;;;;5033679;28;20052;-40
2023/01/25 04:26:24;;;;;;;7.25;5.47;;;15.20;1.00;;;;;;5031862;28;20042;-40
2023/01/25 04:28:55;;;;;;;7.10;5.20;;;15.10;1.00;;;;;;5032682;28;20061;-40
2023/01/25 04:31:22;;;;;;;7.88;5.68;;;15.10;1.00;;;;;;5032367;28;20136;-40
2023/01/25 04:33:49;;;;;;;7.78;5.35;;;15.10;1.00;;;;;;5032235;28;20417;-40
2023/01/25 04:36:18;;;;;;;9.13;5.90;;;15.10;1.00;;;;;;5032316;28;20045;-41
2023/01/25 04:38:45;;;;;;;8.27;5.97;;;15.10;1.00;;;;;;5033860;28;20042;-40
2023/01/25 04:41:12;;;;;;;7.55;6.07;;;15.10;1.00;;;;;;5032154;28;20440;-40
2023/01/25 04:43:40;;;;;;;7.30;5.22;;;15.00;1.00;;;;;;5032010;28;20140;-40
2023/01/25 04:46:09;;;;;;;7.82;5.32;;;15.00;1.00;;;;;;5032079;28;20049;-40
2023/01/25 04:48:36;;;;;;;8.45;5.75;;;15.00;1.00;;;;;;5033555;28;20061;-41
2023/01/25 04:51:05;;;;;;;8.85;5.60;;;15.00;1.00;;;;;;5032192;28;20080;-40
2023/01/25 04:53:33;;;;;;;10.27;6.30;;;15.00;1.00;;;;;;5031693;28;20038;-40
2023/01/25 04:56:01;;;;;;;8.98;6.40;;;14.90;1.00;;;;;;5031996;28;20084;-40
2023/01/25 04:58:32;;;;;;;7.78;5.25;;;15.00;1.00;;;;;;5032042;28;20072;-40
2023/01/25 05:01:02;;;;;;;7.70;5.50;;;14.90;1.00;;;;;;5031997;28;20045;-40
2023/01/25 05:03:30;;;;;;;9.20;5.88;;;14.90;1.00;;;;;;5031693;28;20496;-40
2023/01/25 05:05:57;;;;;;;7.95;5.65;;;14.90;1.00;;;;;;5032883;28;20048;-40
2023/01/25 05:08:25;;;;;;;7.30;5.20;;;14.90;1.00;;;;;;5031813;28;20408;-41
2023/01/25 05:10:57;;;;;;;9.63;6.57;;;14.90;1.00;;;;;;5017046;28;20044;-40
2023/01/25 05:13:35;;;;;;;8.75;6.13;;;14.90;1.00;;;;;;5018349;28;20148;-40
2023/01/25 05:16:12;;;;;;;8.00;6.00;;;14.90;1.00;;;;;;4995399;28;20046;-40
2023/01/25 05:18:39;;;;;;;8.73;5.35;;;14.80;1.00;;;;;;4995663;28;20061;-40
2023/01/25 05:24:05;;;;;;;12.60;7.05;;;14.80;1.00;;;;;;5011445;28;20080;-40
2023/01/25 05:29:18;;;;;;;16.75;8.80;;;14.80;1.00;;;;;;5014998;28;20046;-41
2023/01/25 05:31:51;;;;;;;14.38;8.57;;;14.80;1.00;;;;;;5022866;28;20129;-41
2023/01/25 05:34:18;;;;;;;19.20;8.38;;;14.80;1.00;;;;;;5031124;28;20042;-40
2023/01/25 05:36:45;;;;;;;12.45;7.80;;;14.80;1.00;;;;;;5031324;28;20041;-41
2023/01/25 05:39:12;;;;;;;14.77;8.30;;;14.80;1.00;;;;;;5030547;28;20049;-40
2023/01/25 05:41:39;;;;;;;20.25;9.65;;;14.80;1.00;;;;;;5031301;28;20053;-40
2023/01/25 05:44:06;;;;;;;14.73;8.90;;;14.80;1.00;;;;;;5030961;28;20053;-41
2023/01/25 05:46:38;;;;;;;18.55;9.70;;;14.80;1.00;;;;;;5031080;28;20045;-40
2023/01/25 05:49:05;;;;;;;16.50;9.23;;;14.70;1.00;;;;;;5031296;28;20037;-40
2023/01/25 05:51:34;;;;;;;14.10;8.65;;;14.70;1.00;;;;;;5025961;28;20043;-41
2023/01/25 05:54:07;;;;;;;15.75;8.82;;;14.70;1.00;;;;;;5022351;28;20061;-40
2023/01/25 05:56:41;;;;;;;13.68;8.65;;;14.70;1.00;;;;;;5021819;28;20045;-41
2023/01/25 05:59:10;;;;;;;14.00;9.20;;;14.70;1.00;;;;;;5030525;28;20049;-41
2023/01/25 06:01:37;;;;;;;19.33;9.18;;;14.70;1.00;;;;;;5030839;28;20049;-41
2023/01/25 06:04:05;;;;;;;15.13;9.02;;;14.70;1.00;;;;;;5030594;28;20041;-41
2023/01/25 06:06:32;;;;;;;17.02;9.25;;;14.60;1.00;;;;;;5030527;28;20091;-41
2023/01/25 06:09:00;;;;;;;17.30;10.18;;;14.60;1.00;;;;;;5032372;28;20408;-41
2023/01/25 06:11:27;;;;;;;16.55;9.48;;;14.60;1.00;;;;;;5031994;28;20044;-41
2023/01/25 06:13:54;;;;;;;16.10;9.88;;;14.60;1.00;;;;;;5030401;28;20064;-41
2023/01/25 06:16:21;;;;;;;15.98;9.77;;;14.60;1.00;;;;;;5031892;28;20099;-41
2023/01/25 06:19:00;;;;;;;15.20;9.60;;;14.60;1.00;;;;;;5030627;28;20416;-40
2023/01/25 06:21:53;;;;;;;19.92;10.43;;;14.60;1.00;;;;;;5020750;28;20068;-40
2023/01/25 06:24:20;;;;;;;15.80;9.32;;;14.50;1.00;;;;;;5031770;28;20053;-41
2023/01/25 06:26:47;;;;;;;15.52;9.82;;;14.50;1.00;;;;;;5031639;28;20132;-40
2023/01/25 06:29:14;;;;;;;17.25;10.98;;;14.50;1.00;;;;;;5031729;28;20096;-40
2023/01/25 06:31:40;;;;;;;17.80;10.65;;;14.50;1.00;;;;;;5031740;28;20144;-40
2023/01/25 06:34:10;;;;;;;17.30;10.90;;;14.50;1.00;;;;;;5031504;28;20052;-41
2023/01/25 06:36:37;;;;;;;19.48;9.90;;;14.50;1.00;;;;;;5030281;28;20490;-41
2023/01/25 06:39:04;;;;;;;19.80;11.23;;;14.50;1.00;;;;;;5031849;28;20046;-40
2023/01/25 06:41:31;;;;;;;19.98;11.48;;;14.50;1.00;;;;;;5031739;28;20443;-41
2023/01/25 06:43:57;;;;;;;19.00;10.95;;;14.50;1.00;;;;;;5031419;28;20528;-41
2023/01/25 06:46:24;;;;;;;17.67;10.73;;;14.40;1.00;;;;;;5031456;28;20045;-40
2023/01/25 06:48:51;;;;;;;18.08;10.35;;;14.40;1.00;;;;;;5032224;28;20050;-41
2023/01/25 06:51:18;;;;;;;19.52;11.10;;;14.40;1.00;;;;;;5035652;28;20042;-41
2023/01/25 06:53:46;;;;;;;17.98;11.20;;;14.40;1.00;;;;;;5035487;28;20446;-40
2023/01/25 06:56:18;;;;;;;18.33;11.25;;;14.40;1.00;;;;;;5035435;28;20484;-41
2023/01/25 06:58:45;;;;;;;22.20;11.77;;;14.40;1.00;;;;;;5035540;28;20049;-41
2023/01/25 07:01:15;;;;;;;19.05;10.57;;;14.40;1.00;;;;;;5035507;28;20045;-41
2023/01/25 07:03:42;;;;;;;19.58;10.68;;;14.30;1.00;;;;;;5035359;28;20064;-40
2023/01/25 07:06:10;;;;;;;21.75;12.38;;;14.30;1.00;;;;;;5035138;28;20049;-41
2023/01/25 07:08:38;;;;;;;20.30;10.27;;;14.30;1.00;;;;;;5035407;28;20069;-41
2023/01/25 07:11:10;;;;;;;16.75;10.68;;;14.30;1.00;;;;;;5035250;28;20045;-41
2023/01/25 07:13:37;;;;;;;17.67;10.32;;;14.20;1.00;;;;;;5035033;28;20091;-40
2023/01/25 07:16:06;;;;;;;16.65;10.27;;;14.30;1.00;;;;;;5034878;28;20049;-40
2023/01/25 07:18:36;;;;;;;20.70;11.65;;;14.20;1.00;;;;;;5035051;28;20049;-40
2023/01/25 07:21:05;;;;;;;18.92;10.75;;;14.20;1.00;;;;;;5035168;28;20407;-41
2023/01/25 07:23:32;;;;;;;21.55;11.65;;;14.20;1.00;;;;;;5034896;28;20056;-40
2023/01/25 07:26:00;;;;;;;20.23;11.57;;;14.20;1.00;;;;;;5034811;28;20048;-41
2023/01/25 07:28:27;;;;;;;21.20;11.95;;;14.20;1.00;;;;;;5035004;28;20042;-40
2023/01/25 07:30:54;;;;;;;18.05;11.40;;;14.20;1.00;;;;;;5035031;28;20061;-41
2023/01/25 07:33:21;;;;;;;18.38;11.95;;;14.20;1.00;;;;;;5025102;28;20424;-40
2023/01/25 07:35:49;;;;;;;19.90;12.18;;;14.20;1.00;;;;;;5034501;28;20037;-40
2023/01/25 07:38:16;;;;;;;18.30;12.10;;;14.20;1.00;;;;;;5034510;28;20041;-40
2023/01/25 07:40:49;;;;;;;20.05;12.38;;;14.20;1.00;;;;;;5034673;28;20204;-41
2023/01/25 07:43:16;;;;;;;17.98;10.98;;;14.10;1.00;;;;;;5033219;28;20141;-41
2023/01/25 07:45:47;;;;;;;19.98;11.70;;;14.10;1.00;;;;;;5029027;28;20108;-40
2023/01/25 07:48:15;;;;;;;23.23;12.70;;;14.10;1.00;;;;;;5029418;28;20061;-40
2023/01/25 07:50:45;;;;;;;22.38;12.02;;;14.10;1.00;;;;;;5030993;28;20041;-40
2023/01/25 07:53:12;;;;;;;18.80;12.15;;;14.10;1.00;;;;;;5032424;28;20037;-40
2023/01/25 07:55:39;;;;;;;18.95;11.80;;;14.10;1.00;;;;;;5033031;28;20042;-40
2023/01/25 07:58:07;;;;;;;22.90;11.95;;;14.10;1.00;;;;;;5034053;28;20053;-41
2023/01/25 08:00:33;;;;;;;20.13;12.73;;;14.10;1.00;;;;;;5033272;28;20457;-40
2023/01/25 08:03:00;;;;;;;17.27;11.23;;;14.10;1.00;;;;;;5026176;28;20042;-40
2023/01/25 08:05:27;;;;;;;17.73;11.93;;;14.10;1.00;;;;;;5028201;28;20068;-40
2023/01/25 08:07:54;;;;;;;17.95;11.55;;;14.10;1.00;;;;;;5028081;28;20099;-40
2023/01/25 08:10:20;;;;;;;30.55;15.82;;;14.00;1.00;;;;;;5016172;28;20041;-40
2023/01/25 08:12:47;;;;;;;27.80;15.52;;;14.00;1.00;;;;;;5030566;28;20037;-41
2023/01/25 08:15:14;;;;;;;27.70;14.77;;;14.00;1.00;;;;;;5021756;28;20584;-40
2023/01/25 08:17:41;;;;;;;24.25;14.60;;;14.00;1.00;;;;;;5029063;28;20116;-40
2023/01/25 08:20:08;;;;;;;22.33;13.25;;;14.00;1.00;;;;;;5028717;28;20033;-40
2023/01/25 08:22:35;;;;;;;29.02;13.98;;;14.00;1.00;;;;;;5031672;28;20512;-40
2023/01/25 08:25:03;;;;;;;23.30;14.02;;;13.90;1.00;;;;;;5033495;28;20064;-40
2023/01/25 08:27:29;;;;;;;24.20;14.38;;;14.00;1.00;;;;;;5033590;28;20046;-40
2023/01/25 08:29:56;;;;;;;24.27;14.05;;;13.90;1.00;;;;;;5033790;28;20037;-40
2023/01/25 08:32:23;;;;;;;21.83;12.60;;;13.90;1.00;;;;;;5033369;28;20124;-40
2023/01/25 08:34:50;;;;;;;23.17;14.23;;;13.90;1.00;;;;;;5033534;28;20049;-40
2023/01/25 08:37:17;;;;;;;22.52;12.88;;;13.90;1.00;;;;;;5033619;28;20456;-40
2023/01/25 08:39:43;;;;;;;26.73;14.77;;;13.90;1.00;;;;;;5033632;28;20057;-40
2023/01/25 08:42:10;;;;;;;25.13;14.63;;;14.00;1.00;;;;;;5033507;28;20049;-40
2023/01/25 08:44:37;;;;;;;24.33;13.48;;;14.00;1.00;;;;;;5033419;28;20041;-40
2023/01/25 08:47:04;;;;;;;21.25;12.38;;;14.10;1.00;;;;;;5033213;28;20033;-40
2023/01/25 08:49:33;;;;;;;20.88;12.77;;;14.20;1.00;;;;;;5032367;28;20057;-40
2023/01/25 08:52:00;;;;;;;21.83;13.07;;;14.30;1.00;;;;;;5033409;28;20444;-40
2023/01/25 08:54:27;;;;;;;20.60;12.43;;;14.40;1.00;;;;;;5033197;28;20084;-40
2023/01/25 08:56:54;;;;;;;19.00;11.48;;;14.50;1.00;;;;;;5033355;28;20049;-40
2023/01/25 08:59:20;;;;;;;23.65;12.52;;;14.60;1.00;;;;;;5033105;28;20057;-40
2023/01/25 09:01:47;;;;;;;17.83;10.80;;;14.70;1.00;;;;;;5033145;28;20045;-40
2023/01/25 09:04:14;;;;;;;17.05;10.02;;;14.80;1.00;;;;;;5032944;28;20128;-40
2023/01/25 09:06:40;;;;;;;15.82;9.95;;;14.80;1.00;;;;;;5067650;22;20080;-32
2023/01/25 09:09:07;;;;;;;17.45;10.73;;;14.90;1.00;;;;;;5032882;28;20256;-32
2023/01/25 09:11:39;;;;;;;16.77;11.00;;;15.00;1.00;;;;;;5032954;28;20072;-32
2023/01/25 09:14:06;;;;;;;16.25;10.25;;;15.00;1.00;;;;;;5032638;28;20619;-32
2023/01/25 09:16:38;;;;;;;17.77;10.63;;;15.10;1.00;;;;;;5032662;28;20456;-32
2023/01/25 09:19:06;;;;;;;15.88;10.20;;;15.10;1.00;;;;;;5032898;28;20048;-32
2023/01/25 09:21:33;;;;;;;17.55;9.85;;;15.20;1.00;;;;;;5032750;28;20041;-32
2023/01/25 09:24:00;;;;;;;15.32;10.75;;;15.20;1.00;;;;;;5032459;28;20033;-32
2023/01/25 09:26:38;;;;;;;15.60;10.13;;;15.20;1.00;;;;;;5032523;28;20133;-32
2023/01/25 09:29:06;;;;;;;15.25;9.88;;;15.20;1.00;;;;;;5032747;28;20046;-32
2023/01/25 09:31:35;;;;;;;15.75;10.20;;;15.20;1.00;;;;;;5032542;28;20128;-32
2023/01/25 09:34:13;;;;;;;15.48;10.02;;;15.20;1.00;;;;;;5014552;28;20124;-32
2023/01/25 09:36:40;;;;;;;15.45;9.90;;;15.20;1.00;;;;;;5032332;28;20489;-32
2023/01/25 09:39:11;;;;;;;14.80;9.98;;;15.20;1.00;;;;;;5032456;28;20599;-32
2023/01/25 09:42:06;;;;;;;15.65;10.50;;;15.20;1.00;;;;;;5032387;28;20217;-32
2023/01/25 09:44:41;;;;;;;15.35;9.00;;;15.20;1.00;;;;;;5032380;28;20050;-32
2023/01/25 09:47:28;;;;;;;16.70;10.77;;;15.20;1.00;;;;;;5031981;28;20037;-32
2023/01/25 09:50:15;;;;;;;14.52;9.10;;;15.20;1.00;;;;;;5032328;28;20042;-32
2023/01/25 09:52:57;;;;;;;16.55;10.07;;;15.20;1.00;;;;;;5032046;28;20052;-32
2023/01/25 09:55:28;;;;;;;14.38;9.90;;;15.20;1.00;;;;;;5031973;28;20460;-32
2023/01/25 09:57:59;;;;;;;14.50;9.55;;;15.10;1.00;;;;;;5032427;28;20076;-32
2023/01/25 10:00:38;;;;;;;13.32;8.20;;;15.10;1.00;;;;;;5032103;28;20041;-32
2023/01/25 10:03:19;;;;;;;14.57;9.80;;;15.10;1.00;;;;;;5014243;28;20073;-32
2023/01/25 10:05:55;;;;;;;15.32;9.90;;;15.10;1.00;;;;;;5031743;28;20107;-32
2023/01/25 10:08:39;;;;;;;15.18;9.82;;;15.10;1.00;;;;;;5031909;28;20132;-32
2023/01/25 10:11:10;;;;;;;;;;;15.10;1.00;;;;;;5032418;28;20061;-32
2023/01/25 10:13:37;;;;;;;13.27;8.73;;;15.00;1.00;;;;;;5031740;28;19921;-32
2023/01/25 10:16:11;;;;;;;14.75;9.35;;;15.00;1.00;;;;;;5031613;28;20049;-32
2023/01/25 10:18:58;;;;;;;17.05;9.52;;;15.00;1.00;;;;;;5031899;28;20037;-32
2023/01/25 10:21:28;;;;;;;14.02;9.50;;;15.00;1.00;;;;;;5031853;28;20073;-32
2023/01/25 10:24:10;;;;;;;18.55;10.07;;;14.90;1.00;;;;;;5031218;28;20087;-32
2023/01/25 10:26:53;;;;;;;15.25;10.00;;;14.90;1.00;;;;;;5031717;28;20083;-32
2023/01/25 10:29:55;;;;;;;15.20;9.38;;;14.90;1.00;;;;;;5031782;28;20037;-32
2023/01/25 10:32:31;;;;;;;16.13;9.43;;;14.80;1.00;;;;;;5031541;28;20044;-32
2023/01/25 10:35:11;;;;;;;15.45;10.18;;;14.80;1.00;;;;;;5031466;28;20069;-32
2023/01/25 10:38:10;;;;;;;15.27;9.73;;;14.80;1.00;;;;;;5031693;28;20451;-32
2023/01/25 10:40:52;;;;;;;16.45;10.73;;;14.80;1.00;;;;;;5031570;28;20049;-32
2023/01/25 10:43:26;;;;;;;15.35;9.65;;;14.80;1.00;;;;;;5031502;28;20049;-32
2023/01/25 10:45:56;;;;;;;16.88;9.55;;;14.70;1.00;;;;;;5031333;28;20042;-32
2023/01/25 10:48:27;;;;;;;16.38;10.00;;;14.70;1.00;;;;;;5031518;28;20068;-32
2023/01/25 10:51:38;;;;;;;13.25;8.90;;;14.70;1.00;;;;;;5031450;28;20512;-32
2023/01/25 10:54:16;;;;;;;14.50;9.23;;;14.70;1.00;;;;;;5031390;28;20040;-32
2023/01/25 10:56:45;;;;;;;16.58;10.10;;;14.60;1.00;;;;;;5031395;28;20042;-32
2023/01/25 10:59:25;;;;;;;17.08;9.98;;;14.60;1.00;;;;;;5031458;28;20045;-32
2023/01/25 11:01:56;;;;;;;14.30;9.52;;;14.60;1.00;;;;;;5031463;28;20041;-32
2023/01/25 11:04:30;;;;;;;16.33;9.63;;;14.60;1.00;;;;;;5031133;28;20077;-32
2023/01/25 11:06:58;;;;;;;15.35;10.85;;;14.60;1.00;;;;;;5031139;28;20485;-32
2023/01/25 11:09:27;;;;;;;14.80;10.00;;;14.60;1.00;;;;;;5031421;28;20084;-32
2023/01/25 11:11:57;;;;;;;17.05;9.93;;;14.50;1.00;;;;;;5013533;28;20524;-32
2023/01/25 11:14:26;;;;;;;16.08;10.05;;;14.50;1.00;;;;;;5031044;28;20080;-32
2023/01/25 11:16:55;;;;;;;14.60;9.35;;;14.50;1.00;;;;;;5031092;28;20053;-32
2023/01/25 11:19:31;;;;;;;15.23;8.90;;;14.50;1.00;;;;;;5031354;28;20049;-32
2023/01/25 11:21:59;;;;;;;14.85;9.77;;;14.50;1.00;;;;;;5031139;28;20121;-32
2023/01/25 11:24:29;;;;;;;14.38;9.90;;;14.40;1.00;;;;;;5031214;28;20045;-32
2023/01/25 11:27:17;;;;;;;11.45;7.97;;;14.40;1.00;;;;;;5030826;28;20038;-32
2023/01/25 11:29:45;;;;;;;12.90;8.63;;;14.40;1.00;;;;;;5031098;28;20046;-32
2023/01/25 11:32:21;;;;;;;15.13;9.45;;;14.40;1.00;;;;;;5031025;28;20042;-32
2023/01/25 11:34:49;;;;;;;15.07;8.93;;;14.40;1.00;;;;;;5031058;28;20103;-32
2023/01/25 11:37:30;;;;;;;15.43;9.65;;;14.40;1.00;;;;;;5033646;28;20048;-32
2023/01/25 11:40:18;;;;;;;14.18;8.63;;;14.40;1.00;;;;;;5034724;28;20124;-32
2023/01/25 11:43:01;;;;;;;14.15;8.75;;;14.30;1.00;;;;;;5034525;28;20045;-32
2023/01/25 11:46:00;;;;;;;14.35;8.98;;;14.30;1.00;;;;;;5035073;28;20540;-32
2023/01/25 11:48:34;;;;;;;13.98;9.38;;;14.30;1.00;;;;;;5034677;28;20120;-32
2023/01/25 11:51:13;;;;;;;14.68;10.07;;;14.20;1.00;;;;;;5034509;28;20057;-32
2023/01/25 11:54:21;;;;;;;16.27;9.68;;;14.20;1.00;;;;;;5034392;28;20125;-32
2023/01/25 11:57:04;;;;;;;15.30;9.57;;;14.20;1.00;;;;;;5034376;28;20045;-32
2023/01/25 12:00:11;;;;;;;15.95;10.20;;;14.20;1.00;;;;;;5034457;28;20587;-32
2023/01/25 12:03:08;;;;;;;19.42;9.65;;;14.20;1.00;;;;;;5033804;28;20068;-31
2023/01/25 12:06:12;;;;;;;15.02;9.13;;;14.10;1.00;;;;;;5034140;28;20069;-32
2023/01/25 12:08:56;;;;;;;14.98;9.55;;;14.10;1.00;;;;;;5034147;28;20077;-34
2023/01/25 12:12:02;;;;;;;15.10;9.45;;;14.10;1.00;;;;;;5034187;28;20041;-34
2023/01/25 12:14:59;;;;;;;14.13;9.23;;;14.10;1.00;;;;;;5033919;28;20044;-33
2023/01/25 12:17:32;;;;;;;15.80;9.43;;;14.10;1.00;;;;;;5034235;28;20103;-31
2023/01/25 12:20:13;;;;;;;15.02;9.40;;;14.10;1.00;;;;;;5034083;28;20049;-31
2023/01/25 12:22:51;;;;;;;14.23;8.68;;;14.20;1.00;;;;;;5033681;28;20136;-31
2023/01/25 12:26:10;;;;;;;13.52;9.00;;;14.30;1.00;;;;;;5033734;28;20053;-32
2023/01/25 12:28:54;;;;;;;13.05;7.95;;;14.40;1.00;;;;;;4992244;28;20054;-31
2023/01/25 12:31:34;;;;;;;13.15;8.70;;;14.50;1.00;;;;;;5033792;28;20037;-31
2023/01/25 12:34:13;;;;;;;12.95;9.13;;;14.60;1.00;;;;;;5033597;28;20113;-31
2023/01/25 12:36:44;;;;;;;13.00;7.93;;;14.70;1.00;;;;;;5033878;28;20064;-31
2023/01/25 12:39:23;;;;;;;15.07;8.68;;;14.80;1.00;;;;;;5033644;28;20091;-31
2023/01/25 12:42:01;;;;;;;14.57;9.07;;;14.90;1.00;;;;;;5033523;28;20061;-31
2023/01/25 12:44:46;;;;;;;13.93;8.60;;;15.00;1.00;;;;;;5033317;28;20046;-33
2023/01/25 12:47:20;;;;;;;12.57;8.30;;;15.10;1.00;;;;;;5033032;28;20038;-35
2023/01/25 12:50:01;;;;;;;13.23;8.65;;;15.10;1.00;;;;;;5033628;28;20401;-31
2023/01/25 12:52:38;;;;;;;13.15;8.23;;;15.20;1.00;;;;;;5033082;28;20073;-31
2023/01/25 12:55:11;;;;;;;14.85;8.90;;;15.20;1.00;;;;;;5033337;28;20471;-31
2023/01/25 12:57:46;;;;;;;12.13;8.95;;;15.20;1.00;;;;;;5033276;28;20049;-31
2023/01/25 13:00:39;;;;;;;12.45;8.38;;;15.20;1.00;;;;;;5015792;28;20053;-31
2023/01/25 13:03:27;;;;;;;12.80;8.77;;;15.30;1.00;;;;;;5032905;28;20049;-31
2023/01/25 13:06:03;;;;;;;12.07;7.97;;;15.30;1.00;;;;;;5033006;28;20061;-31
2023/01/25 13:08:41;;;;;;;10.75;7.78;;;15.30;1.00;;;;;;5033015;28;20116;-31
2023/01/25 13:11:13;;;;;;;12.70;8.27;;;15.30;1.00;;;;;;5032959;28;20103;-33
2023/01/25 13:13:40;;;;;;;12.77;8.38;;;15.30;1.00;;;;;;5033042;28;20116;-32
2023/01/25 13:16:22;;;;;;;13.30;8.35;;;15.30;1.00;;;;;;5032890;28;20451;-33
2023/01/25 13:18:49;;;;;;;12.90;8.00;;;15.30;1.00;;;;;;5032954;28;20077;-32
2023/01/25 13:21:46;;;;;;;13.57;9.20;;;15.30;1.00;;;;;;5032817;28;20045;-34